Date,TemperatureHighF,TemperatureAvgF,TemperatureLowF,DewpointHighF,DewpointAvgF,DewpointLowF,HumidityHigh,HumidityAvg,HumidityLow,PressureMaxIn,PressureMinIn,WindSpeedMaxMPH,WindSpeedAvgMPH,GustSpeedMaxMPH,PrecipitationSumIn
2014-1-5,41,22,6,33,15,1,81,76,64,30.32,29.79,10,1,22,0.01
2014-1-6,53,37,22,45,28,9,78,68,54,29.74,29.39,12,5,29,0.77
2014-1-7,20,8,4,8,-7,-10,63,51,42,30.34,29.67,16,6,32,0.01
2014-1-8,20,12,4,7,2,-4,73,63,50,30.53,30.34,6,2,17,0.00
2014-1-9,29,17,12,15,10,7,80,73,54,30.66,30.48,4,0,9,0.00
2014-1-10,34,28,18,28,22,13,79,77,74,30.59,30.24,0,0,3,0.04
2014-1-11,57,39,32,49,29,-100,75,72,73,30.22,29.36,5,1,12,0.70
2014-1-12,49,40,31,41,31,25,79,70,61,30.03,29.36,10,2,25,0.01
2014-1-13,46,37,28,38,29,21,79,75,66,30.12,29.87,7,1,18,0.00
2014-1-14,46,44,40,39,36,32,78,74,71,29.86,29.68,5,1,13,0.48
2014-1-15,47,37,28,39,30,21,77,75,73,29.97,29.85,5,1,13,0.03
2014-1-16,38,33,30,30,27,24,79,77,73,29.95,29.85,5,1,12,0.04
2014-1-17,42,31,23,31,23,16,79,73,61,29.97,29.89,6,1,12,0.01
2014-1-23,19,10,2,5,1,-3,81,68,50,30.27,29.99,9,2,23,0.00
2014-1-24,20,13,7,4,1,-2,73,59,40,30.36,30.06,10,4,21,0.00
2014-1-25,23,19,15,17,9,-100,80,68,58,30.03,29.42,10,5,23,0.00
2014-1-26,23,17,10,16,8,2,80,68,46,29.87,29.43,10,3,20,0.01
2014-1-27,39,25,17,29,14,0,79,62,37,30.09,29.58,14,4,28,0.04
2014-1-28,17,13,6,1,-2,-4,67,50,39,30.37,30.09,10,3,22,0.01
2014-1-29,24,16,10,3,0,-4,62,48,33,30.29,30.06,8,3,20,0.00
2014-1-30,29,17,7,11,6,0,76,60,42,30.45,30.20,6,2,14,0.00
2014-1-31,39,30,20,24,16,9,67,57,44,30.22,30.08,6,2,14,0.02
2014-2-1,45,35,26,30,24,-100,78,66,50,30.33,30.04,7,2,17,0.01
2014-2-2,49,38,28,39,30,21,78,75,60,30.10,29.90,5,1,14,0.05
2014-2-3,35,30,26,28,23,19,79,77,74,30.32,30.09,4,1,13,0.01
2014-2-4,34,22,10,24,16,5,80,75,62,30.49,30.28,4,0,7,0.18
2014-2-5,30,27,24,23,20,17,79,76,74,30.28,29.67,6,1,12,0.01
2014-2-6,28,20,10,19,13,5,81,75,57,30.30,29.98,6,1,12,0.04
2014-2-7,31,19,5,17,9,0,81,67,45,30.31,30.19,7,2,16,0.01
2014-2-8,28,18,7,11,6,0,75,60,42,30.34,30.15,5,1,13,0.01
2014-2-9,28,19,4,19,11,-1,80,71,55,30.20,29.97,4,1,9,0.00
2014-2-10,28,19,9,15,10,4,80,68,50,30.27,29.97,12,3,21,0.00
2014-2-11,26,13,-2,10,3,-6,81,67,45,30.49,30.26,7,2,20,0.00
2014-2-12,24,10,-5,9,0,-10,80,69,43,30.57,30.35,5,0,12,0.00
2014-2-13,31,24,15,24,18,9,79,75,74,30.35,29.09,12,3,26,0.00
2014-2-14,40,34,28,29,26,22,79,73,63,29.76,29.06,14,6,35,0.17
2014-2-15,34,28,21,27,20,-100,79,75,69,29.78,29.65,13,3,20,0.02
2014-2-16,29,23,16,18,13,10,79,68,54,30.07,29.72,12,5,28,0.01
2014-2-17,32,19,3,10,7,-2,79,61,33,30.39,30.08,7,1,18,0.09
2014-2-18,22,16,15,16,10,9,79,77,76,30.33,30.08,0,0,0,0.08
2014-2-19,38,28,15,29,20,9,79,75,73,30.10,29.71,0,0,0,0.05
2014-2-20,49,36,27,33,28,20,79,71,47,30.23,29.96,0,0,0,0.41
2014-2-21,39,36,32,31,28,25,74,74,73,30.04,29.67,0,0,0,0.23
2014-2-22,50,40,27,31,24,-100,78,57,39,30.00,29.88,13,3,26,0.01
2014-2-23,47,38,27,32,28,21,78,69,53,30.00,29.80,4,1,12,0.01
2014-2-24,38,30,22,29,16,11,78,57,43,30.06,29.79,16,6,31,0.00
2014-2-25,31,22,13,19,11,6,76,63,51,30.06,29.92,12,3,21,0.00
2014-2-26,29,17,7,16,6,-2,80,64,37,29.96,29.84,14,3,28,0.00
2014-3-12,45,38,28,36,31,21,78,74,66,29.69,29.04,12,1,24,0.29
2014-3-13,27,20,15,20,8,2,76,58,36,30.07,29.18,18,10,35,0.02
2014-3-14,42,28,17,26,14,4,76,56,41,30.19,29.89,10,3,20,0.01
2014-3-15,53,44,34,35,29,25,77,58,38,29.99,29.73,15,6,29,0.01
2014-3-16,37,30,25,24,11,-100,62,48,35,30.19,29.99,12,6,21,0.01
2014-3-17,32,23,17,8,3,-100,59,45,25,30.17,30.05,7,2,20,0.00
2014-3-18,43,29,15,18,11,7,76,50,24,30.30,30.17,4,1,10,0.00
2014-3-19,42,32,23,33,24,17,78,73,65,30.33,29.89,6,1,13,0.71
2014-3-20,51,41,35,37,28,-100,74,63,46,29.87,29.71,12,4,26,0.71
2014-4-13,81,59,44,58,44,-100,76,66,41,30.17,29.92,12,3,20,0.01
2014-4-14,80,68,55,59,55,46,75,65,45,29.96,29.78,14,6,26,0.00
2014-4-15,64,54,34,56,45,26,75,72,70,29.88,29.49,12,4,21,1.66
2014-4-16,46,37,28,26,21,16,78,56,30,30.57,29.90,10,4,21,0.12
2014-4-17,54,40,29,30,24,19,73,52,33,30.73,30.59,7,3,15,0.01
2014-4-18,50,41,30,34,30,23,77,64,47,30.60,30.24,5,1,12,0.00
2014-4-19,65,52,37,39,31,26,77,50,23,30.37,30.20,8,2,18,0.00